createdAt,value
2024-03-04T00:02:11.510Z,7.83
2024-03-04T00:04:40.898Z,7.88
2024-03-04T00:07:07.512Z,7.91
2024-03-04T00:09:34.029Z,8.19
2024-03-04T00:12:00.606Z,7.80
2024-03-04T00:14:27.717Z,7.79
2024-03-04T00:16:54.461Z,7.71
2024-03-04T00:19:20.988Z,7.79
2024-03-04T00:21:47.522Z,7.72
2024-03-04T00:24:14.165Z,7.74
2024-03-04T00:29:08.572Z,7.71
2024-03-04T00:31:35.130Z,7.82
2024-03-04T00:34:01.724Z,7.99
2024-03-04T00:36:28.260Z,7.79
2024-03-04T00:38:58.172Z,7.67
2024-03-04T00:41:28.525Z,7.90
2024-03-04T00:43:55.138Z,7.92
2024-03-04T00:46:24.161Z,8.05
2024-03-04T00:48:50.965Z,7.92
2024-03-04T00:51:17.519Z,7.96
2024-03-04T00:53:45.820Z,7.77
2024-03-04T00:56:14.106Z,7.97
2024-03-04T00:58:41.511Z,7.94
2024-03-04T01:01:08.986Z,8.00
2024-03-04T01:03:36.146Z,7.88
2024-03-04T01:06:03.791Z,7.86
2024-03-04T01:08:30.249Z,7.98
2024-03-04T01:10:57.529Z,7.77
2024-03-04T01:13:24.561Z,7.87
2024-03-04T01:15:51.094Z,8.05
2024-03-04T01:18:21.498Z,7.95
2024-03-04T01:20:48.359Z,7.86
2024-03-04T01:23:14.889Z,7.85
2024-03-04T01:25:41.665Z,8.04
2024-03-04T01:28:08.268Z,7.94
2024-03-04T01:30:34.846Z,7.95
2024-03-04T01:33:03.442Z,7.80
2024-03-04T01:35:30.308Z,7.94
2024-03-04T01:37:56.792Z,7.88
2024-03-04T01:40:23.646Z,7.70
2024-03-04T01:42:50.188Z,8.04
2024-03-04T01:45:27.043Z,7.93
2024-03-04T01:47:55.225Z,7.80
2024-03-04T01:50:26.066Z,7.86
2024-03-04T01:52:53.552Z,8.11
2024-03-04T01:55:21.155Z,8.09
2024-03-04T01:57:49.919Z,8.01
2024-03-04T02:00:18.340Z,7.93
2024-03-04T02:02:44.924Z,7.94
2024-03-04T02:05:12.697Z,7.74
2024-03-04T02:07:39.869Z,7.69
2024-03-04T02:10:07.688Z,7.64
2024-03-04T02:12:38.231Z,7.66
2024-03-04T02:15:05.316Z,7.51
2024-03-04T02:17:31.894Z,7.52
2024-03-04T02:20:05.856Z,7.42
2024-03-04T02:22:32.466Z,7.45
2024-03-04T02:24:58.934Z,7.37
2024-03-04T02:27:25.388Z,7.35
2024-03-04T02:29:51.854Z,7.28
2024-03-04T02:32:18.472Z,7.39
2024-03-04T02:34:46.544Z,7.41
2024-03-04T02:37:16.717Z,7.42
2024-03-04T02:39:44.074Z,7.31
2024-03-04T02:42:10.585Z,7.07
2024-03-04T02:44:37.078Z,7.19
2024-03-04T02:47:03.658Z,7.16
2024-03-04T02:49:31.279Z,7.19
2024-03-04T02:51:57.856Z,7.11
2024-03-04T02:54:24.656Z,6.95
2024-03-04T02:56:52.518Z,7.04
2024-03-04T02:59:20.322Z,7.13
2024-03-04T03:01:50.224Z,7.05
2024-03-04T03:04:17.153Z,7.09
2024-03-04T03:06:44.059Z,7.05
2024-03-04T03:09:11.486Z,7.18
2024-03-04T03:11:38.019Z,7.12
2024-03-04T03:14:04.907Z,7.07
2024-03-04T03:16:31.750Z,6.99
2024-03-04T03:18:58.541Z,6.92
2024-03-04T03:21:25.119Z,7.01
2024-03-04T03:23:52.021Z,6.96
2024-03-04T03:26:19.234Z,7.24
2024-03-04T03:28:46.383Z,7.13
2024-03-04T03:31:13.128Z,6.94
2024-03-04T03:33:40.004Z,6.85
2024-03-04T03:36:07.071Z,6.81
2024-03-04T03:38:34.688Z,6.75
2024-03-04T03:41:02.303Z,6.60
2024-03-04T03:43:28.899Z,6.58
2024-03-04T03:45:55.561Z,6.57
2024-03-04T03:48:22.162Z,6.53
2024-03-04T03:50:48.704Z,6.70
2024-03-04T03:53:15.188Z,6.62
2024-03-04T03:55:41.801Z,6.83
2024-03-04T03:58:08.402Z,6.97
2024-03-04T04:00:37.456Z,7.11
2024-03-04T04:03:04.401Z,7.01
2024-03-04T04:05:30.830Z,7.16
2024-03-04T04:07:59.069Z,7.11
2024-03-04T04:10:25.721Z,7.22
2024-03-04T04:12:54.877Z,7.19
2024-03-04T04:15:21.466Z,7.17
2024-03-04T04:17:47.997Z,7.16
2024-03-04T04:20:14.604Z,7.56
2024-03-04T04:22:41.882Z,7.41
2024-03-04T04:25:10.397Z,7.50
2024-03-04T04:27:36.828Z,7.58
2024-03-04T04:30:03.491Z,7.62
2024-03-04T04:32:30.034Z,7.55
2024-03-04T04:34:56.494Z,7.63
2024-03-04T04:37:23.005Z,7.80
2024-03-04T04:39:49.480Z,7.82
2024-03-04T04:42:16.957Z,7.84
2024-03-04T04:44:43.529Z,7.91
2024-03-04T04:47:10.066Z,7.88
2024-03-04T04:49:36.678Z,7.80
2024-03-04T04:52:03.979Z,7.71
2024-03-04T04:54:30.742Z,7.56
2024-03-04T04:56:57.211Z,7.66
2024-03-04T04:59:23.747Z,7.72
2024-03-04T05:01:50.286Z,8.06
2024-03-04T05:04:32.319Z,8.17
2024-03-04T05:07:05.325Z,8.09
2024-03-04T05:09:31.948Z,7.90
2024-03-04T05:11:58.409Z,7.88
2024-03-04T05:14:24.867Z,8.03
2024-03-04T05:16:51.368Z,7.99
2024-03-04T05:19:18.422Z,8.08
2024-03-04T05:21:44.912Z,8.03
2024-03-04T05:24:11.574Z,7.95
2024-03-04T05:26:38.151Z,8.06
2024-03-04T05:29:05.786Z,7.91
2024-03-04T05:31:33.828Z,7.90
2024-03-04T05:34:00.630Z,7.86
2024-03-04T05:36:27.714Z,7.70
2024-03-04T05:38:54.224Z,7.59
2024-03-04T05:41:20.659Z,7.61
2024-03-04T05:43:47.111Z,7.50
2024-03-04T05:46:13.702Z,7.47
2024-03-04T05:48:40.164Z,7.53
2024-03-04T05:51:06.897Z,7.59
2024-03-04T05:53:33.536Z,7.72
2024-03-04T05:56:00.070Z,7.66
2024-03-04T05:58:27.578Z,7.44
2024-03-04T06:00:54.272Z,7.65
2024-03-04T06:03:20.776Z,7.55
2024-03-04T06:05:47.278Z,7.64
2024-03-04T06:08:15.782Z,7.54
2024-03-04T06:10:43.408Z,7.50
2024-03-04T06:13:10.347Z,7.39
2024-03-04T06:15:36.888Z,7.26
2024-03-04T06:18:03.584Z,7.34
2024-03-04T06:20:30.163Z,7.20
2024-03-04T06:22:56.672Z,7.19
2024-03-04T06:25:23.233Z,7.06
2024-03-04T06:30:17.668Z,7.63
2024-03-04T06:32:45.324Z,7.41
2024-03-04T06:35:12.043Z,7.49
2024-03-04T06:37:39.106Z,7.56
2024-03-04T06:40:07.364Z,7.52
2024-03-04T06:42:34.401Z,7.79
2024-03-04T06:45:00.822Z,7.90
2024-03-04T06:47:27.519Z,7.71
2024-03-04T06:49:54.017Z,7.91
2024-03-04T06:52:20.538Z,7.93
2024-03-04T06:54:49.810Z,7.82
2024-03-04T06:57:18.417Z,7.83
2024-03-04T06:59:45.201Z,7.96
2024-03-04T07:02:11.733Z,7.91
2024-03-04T07:04:38.320Z,8.14
2024-03-04T07:07:04.894Z,8.22
2024-03-04T07:09:31.408Z,8.38
2024-03-04T07:11:57.973Z,8.41
2024-03-04T07:14:24.431Z,8.35
2024-03-04T07:16:50.908Z,8.29
2024-03-04T07:19:17.448Z,8.44
2024-03-04T07:21:44.037Z,8.45
2024-03-04T07:24:10.516Z,8.39
2024-03-04T07:26:37.132Z,8.26
2024-03-04T07:29:08.319Z,8.28
2024-03-04T07:31:38.724Z,8.39
2024-03-04T07:34:06.940Z,8.63
2024-03-04T07:36:33.385Z,8.60
2024-03-04T07:38:59.838Z,8.62
2024-03-04T07:41:27.267Z,8.64
2024-03-04T07:43:53.779Z,8.72
2024-03-04T07:46:20.353Z,8.51
2024-03-04T07:48:46.844Z,8.59
2024-03-04T07:51:13.327Z,8.74
2024-03-04T07:53:39.791Z,8.87
2024-03-04T07:56:06.647Z,8.70
2024-03-04T07:58:34.475Z,8.84
2024-03-04T08:01:01.647Z,8.93
2024-03-04T08:03:28.281Z,8.86
2024-03-04T08:05:54.929Z,9.11
2024-03-04T08:08:23.134Z,9.11
2024-03-04T08:10:49.924Z,9.33
2024-03-04T08:13:16.420Z,9.54
2024-03-04T08:15:42.936Z,9.26
2024-03-04T08:18:12.501Z,9.27
2024-03-04T08:20:38.990Z,9.48
2024-03-04T08:23:05.489Z,9.22
2024-03-04T08:25:32.359Z,8.99
2024-03-04T08:27:59.273Z,9.06
2024-03-04T08:30:26.198Z,9.15
2024-03-04T08:32:54.562Z,9.12
2024-03-04T08:35:21.831Z,9.29
2024-03-04T08:37:48.769Z,9.42
2024-03-04T08:40:15.867Z,9.33
2024-03-04T08:42:43.303Z,9.13
2024-03-04T08:45:10.697Z,9.23
2024-03-04T08:47:37.278Z,9.08
2024-03-04T08:50:04.623Z,9.29
2024-03-04T08:52:31.344Z,9.16
2024-03-04T08:54:57.955Z,9.04
2024-03-04T08:57:24.513Z,9.34
2024-03-04T08:59:50.937Z,9.16
2024-03-04T09:02:17.492Z,9.22
2024-03-04T09:04:44.450Z,9.35
2024-03-04T09:07:11.522Z,9.39
2024-03-04T09:09:38.567Z,9.48
2024-03-04T09:12:05.487Z,9.45
2024-03-04T09:14:32.089Z,9.50
2024-03-04T09:16:58.642Z,9.94
2024-03-04T09:19:25.162Z,10.06
2024-03-04T09:21:51.658Z,10.01
2024-03-04T09:24:18.231Z,10.15
2024-03-04T09:26:48.045Z,9.89
2024-03-04T09:29:14.586Z,9.93
2024-03-04T09:31:41.444Z,10.07
2024-03-04T09:34:08.220Z,9.96
2024-03-04T09:36:35.092Z,10.28
2024-03-04T09:39:01.596Z,10.20
2024-03-04T09:41:30.994Z,10.55
2024-03-04T09:43:58.780Z,10.87
2024-03-04T09:46:26.738Z,10.87
2024-03-04T09:48:54.141Z,10.94
2024-03-04T09:51:22.481Z,10.81
2024-03-04T09:53:51.926Z,11.33
2024-03-04T09:56:18.663Z,11.00
2024-03-04T09:58:46.367Z,10.47
2024-03-04T10:03:39.809Z,10.60
2024-03-04T10:06:07.460Z,11.02
2024-03-04T10:08:34.201Z,10.79
2024-03-04T10:11:01.005Z,10.80
2024-03-04T10:13:28.758Z,10.81
2024-03-04T10:15:55.313Z,10.96
2024-03-04T10:18:22.218Z,11.26
2024-03-04T10:20:49.169Z,11.35
2024-03-04T10:23:18.708Z,11.42
2024-03-04T10:25:45.269Z,11.40
2024-03-04T10:28:14.028Z,11.09
2024-03-04T10:30:40.610Z,11.28
2024-03-04T10:33:07.105Z,11.32
2024-03-04T10:35:33.724Z,11.60
2024-03-04T10:38:03.598Z,11.53
2024-03-04T10:40:40.410Z,11.42
2024-03-04T10:43:07.929Z,11.18
2024-03-04T10:45:35.572Z,11.20
2024-03-04T10:48:03.773Z,11.29
2024-03-04T10:50:30.912Z,11.59
2024-03-04T10:53:00.361Z,11.18
2024-03-04T10:55:29.295Z,11.48
2024-03-04T10:58:01.569Z,11.32
2024-03-04T11:00:31.209Z,11.37
2024-03-04T11:03:06.214Z,11.99
2024-03-04T11:05:35.002Z,11.87
2024-03-04T11:08:08.094Z,11.76
2024-03-04T11:10:39.342Z,11.79
2024-03-04T11:13:24.974Z,11.69
2024-03-04T11:16:21.685Z,11.88
2024-03-04T11:19:00.658Z,11.93
2024-03-04T11:21:28.434Z,11.77
2024-03-04T11:23:55.008Z,11.58
2024-03-04T11:26:24.034Z,11.65
2024-03-04T11:28:52.260Z,11.89
2024-03-04T11:31:29.142Z,12.00
2024-03-04T11:34:06.654Z,11.87
2024-03-04T11:36:36.546Z,11.61
2024-03-04T11:39:18.096Z,11.59
2024-03-04T11:41:48.827Z,11.54
2024-03-04T11:44:20.916Z,11.53
2024-03-04T11:46:47.566Z,11.63
2024-03-04T11:49:26.191Z,11.98
2024-03-04T11:52:15.485Z,11.77
2024-03-04T11:54:47.056Z,11.72
2024-03-04T11:57:14.769Z,11.96
2024-03-04T11:59:43.193Z,11.84
2024-03-04T12:02:13.551Z,12.03
2024-03-04T12:04:43.213Z,12.07
2024-03-04T12:07:10.053Z,11.88
2024-03-04T12:09:50.770Z,12.06
2024-03-04T12:12:23.370Z,12.02
2024-03-04T12:14:50.424Z,12.30
2024-03-04T12:17:17.092Z,12.40
2024-03-04T12:19:57.323Z,12.14
2024-03-04T12:22:33.116Z,11.99
2024-03-04T12:25:07.296Z,12.21
2024-03-04T12:27:35.318Z,12.09
2024-03-04T12:30:13.959Z,12.10
2024-03-04T12:32:42.283Z,12.12
2024-03-04T12:35:20.248Z,12.19
2024-03-04T12:37:49.905Z,12.06
2024-03-04T12:40:20.658Z,11.99
2024-03-04T12:43:04.391Z,12.10
2024-03-04T12:45:32.474Z,12.08
2024-03-04T12:47:59.684Z,11.94
2024-03-04T12:50:27.988Z,12.32
2024-03-04T12:52:55.811Z,11.92
2024-03-04T12:55:22.689Z,12.09
2024-03-04T12:57:49.556Z,12.16
2024-03-04T13:00:16.352Z,12.14
2024-03-04T13:02:46.938Z,11.78
2024-03-04T13:05:14.800Z,12.09
2024-03-04T13:07:42.187Z,11.93
2024-03-04T13:10:10.943Z,12.25
2024-03-04T13:12:42.339Z,12.11
2024-03-04T13:15:10.633Z,12.03
2024-03-04T13:17:38.690Z,11.81
2024-03-04T13:20:10.215Z,11.71
2024-03-04T13:22:49.059Z,11.59
2024-03-04T13:25:19.742Z,11.50
2024-03-04T13:27:51.619Z,11.52
2024-03-04T13:30:18.410Z,11.80
2024-03-04T13:32:47.580Z,11.71
2024-03-04T13:35:14.430Z,11.65
2024-03-04T13:37:41.167Z,11.53
2024-03-04T13:40:10.195Z,11.54
2024-03-04T13:42:37.030Z,11.46
2024-03-04T13:45:03.697Z,11.84
2024-03-04T13:47:30.289Z,11.82
2024-03-04T13:49:56.912Z,11.59
2024-03-04T13:52:23.556Z,11.53
2024-03-04T13:54:50.043Z,11.51
2024-03-04T13:57:16.856Z,11.60
2024-03-04T13:59:43.334Z,11.68
2024-03-04T14:02:10.940Z,11.82
2024-03-04T14:04:37.652Z,11.57
2024-03-04T14:07:07.415Z,11.67
2024-03-04T14:09:33.974Z,11.69
2024-03-04T14:12:00.920Z,11.79
2024-03-04T14:14:28.766Z,11.79
2024-03-04T14:16:55.357Z,11.65
2024-03-04T14:19:21.964Z,11.82
2024-03-04T14:21:48.438Z,11.82
2024-03-04T14:24:15.825Z,12.05
2024-03-04T14:26:42.266Z,11.87
2024-03-04T14:29:09.488Z,11.91
2024-03-04T14:31:36.059Z,11.81
2024-03-04T14:34:02.809Z,11.71
2024-03-04T14:36:29.987Z,11.79
2024-03-04T14:38:56.805Z,11.86
2024-03-04T14:41:23.329Z,11.91
2024-03-04T14:43:49.913Z,11.87
2024-03-04T14:46:17.152Z,12.32
2024-03-04T14:48:46.141Z,12.25
2024-03-04T14:51:13.368Z,12.41
2024-03-04T14:53:39.954Z,12.46
2024-03-04T14:56:07.219Z,12.59
2024-03-04T14:58:33.746Z,12.27
2024-03-04T15:01:00.774Z,12.36
2024-03-04T15:03:29.114Z,12.16
2024-03-04T15:05:55.843Z,12.40
2024-03-04T15:08:23.580Z,12.49
2024-03-04T15:10:51.405Z,12.59
2024-03-04T15:13:20.187Z,12.29
2024-03-04T15:15:46.736Z,12.51
2024-03-04T15:18:18.494Z,12.50
2024-03-04T15:20:48.799Z,12.32
2024-03-04T15:23:15.588Z,12.30
2024-03-04T15:25:42.675Z,12.23
2024-03-04T15:28:11.311Z,12.25
2024-03-04T15:30:37.936Z,12.00
2024-03-04T15:33:04.771Z,12.23
2024-03-04T15:35:31.284Z,12.17
2024-03-04T15:37:57.758Z,12.27
2024-03-04T15:40:24.278Z,12.22
2024-03-04T15:42:50.838Z,12.28
2024-03-04T15:45:17.414Z,12.18
2024-03-04T15:47:43.932Z,12.14
2024-03-04T15:50:16.809Z,12.11
2024-03-04T15:52:44.977Z,12.18
2024-03-04T15:55:14.768Z,12.17
2024-03-04T15:57:42.544Z,12.17
2024-03-04T16:00:14.762Z,12.52
2024-03-04T16:02:42.157Z,12.46
2024-03-04T16:05:09.741Z,12.37
2024-03-04T16:07:36.402Z,12.12
2024-03-04T16:10:06.678Z,12.06
2024-03-04T16:12:33.373Z,11.98
2024-03-04T16:14:59.808Z,11.95
2024-03-04T16:17:26.395Z,12.01
2024-03-04T16:19:53.105Z,11.87
2024-03-04T16:22:19.617Z,11.88
2024-03-04T16:24:46.141Z,11.92
2024-03-04T16:27:16.609Z,11.78
2024-03-04T16:29:43.150Z,11.81
2024-03-04T16:32:09.671Z,11.81
2024-03-04T16:34:36.251Z,11.84
2024-03-04T16:37:02.843Z,11.88
2024-03-04T16:39:29.323Z,12.05
2024-03-04T16:41:56.166Z,11.98
2024-03-04T16:44:22.990Z,12.26
2024-03-04T16:46:50.584Z,12.21
2024-03-04T16:49:18.284Z,12.16
2024-03-04T16:51:48.504Z,11.86
2024-03-04T16:54:15.680Z,12.08
2024-03-04T16:56:48.922Z,12.19
2024-03-04T16:59:16.156Z,12.04
2024-03-04T17:01:46.117Z,11.96
2024-03-04T17:04:14.989Z,12.01
2024-03-04T17:06:41.472Z,11.93
2024-03-04T17:09:08.051Z,11.70
2024-03-04T17:11:34.596Z,11.79
2024-03-04T17:14:01.051Z,12.02
2024-03-04T17:16:27.655Z,12.08
2024-03-04T17:18:54.158Z,11.98
2024-03-04T17:21:20.620Z,11.88
2024-03-04T17:23:47.152Z,11.90
2024-03-04T17:26:13.694Z,11.92
2024-03-04T17:28:40.269Z,11.91
2024-03-04T17:31:06.801Z,11.82
2024-03-04T17:33:35.138Z,11.89
2024-03-04T17:36:01.681Z,11.75
2024-03-04T17:38:28.129Z,11.77
2024-03-04T17:40:54.755Z,11.73
2024-03-04T17:43:21.371Z,11.57
2024-03-04T17:45:47.924Z,11.68
2024-03-04T17:48:14.705Z,11.68
2024-03-04T17:50:41.881Z,11.58
2024-03-04T17:53:08.562Z,11.73
2024-03-04T17:55:35.129Z,11.51
2024-03-04T17:58:01.680Z,11.66
2024-03-04T18:00:28.602Z,11.61
2024-03-04T18:02:55.351Z,11.67
2024-03-04T18:05:21.895Z,11.69
2024-03-04T18:07:49.404Z,11.75
2024-03-04T18:10:16.403Z,11.77
2024-03-04T18:12:43.205Z,11.73
2024-03-04T18:15:09.850Z,11.77
2024-03-04T18:17:36.999Z,11.71
2024-03-04T18:20:04.216Z,11.60
2024-03-04T18:22:31.165Z,11.57
2024-03-04T18:24:57.700Z,11.61
2024-03-04T18:27:24.144Z,11.75
2024-03-04T18:29:50.634Z,11.82
2024-03-04T18:32:17.118Z,11.75
2024-03-04T18:34:43.869Z,11.82
2024-03-04T18:37:10.469Z,11.80
2024-03-04T18:39:36.998Z,11.84
2024-03-04T18:42:03.678Z,11.83
2024-03-04T18:44:30.250Z,11.90
2024-03-04T18:46:56.921Z,11.86
2024-03-04T18:49:23.528Z,11.73
2024-03-04T18:51:50.085Z,11.71
2024-03-04T18:54:18.486Z,11.86
2024-03-04T18:56:45.306Z,11.68
2024-03-04T18:59:11.891Z,11.72
2024-03-04T19:01:38.453Z,11.65
2024-03-04T19:04:05.070Z,11.69
2024-03-04T19:06:31.553Z,11.67
2024-03-04T19:08:58.012Z,11.68
2024-03-04T19:11:24.590Z,11.79
2024-03-04T19:13:51.211Z,11.58
2024-03-04T19:16:17.941Z,11.60
2024-03-04T19:18:44.391Z,11.53
2024-03-04T19:21:20.881Z,11.61
2024-03-04T19:23:47.501Z,11.69
2024-03-04T19:26:21.148Z,11.66
2024-03-04T19:28:49.358Z,11.28
2024-03-04T19:31:23.655Z,11.52
2024-03-04T19:33:53.509Z,11.66
2024-03-04T19:36:21.158Z,11.63
2024-03-04T19:38:48.378Z,11.20
2024-03-04T19:41:18.846Z,11.28
2024-03-04T19:43:45.443Z,11.42
2024-03-04T19:46:23.461Z,11.47
2024-03-04T19:48:51.672Z,11.58
2024-03-04T19:51:20.248Z,11.33
2024-03-04T19:53:46.773Z,11.44
2024-03-04T19:56:13.573Z,11.25
2024-03-04T19:58:41.438Z,11.20
2024-03-04T20:01:11.005Z,11.57
2024-03-04T20:03:38.101Z,11.37
2024-03-04T20:06:05.034Z,11.26
2024-03-04T20:08:32.228Z,11.42
2024-03-04T20:10:59.435Z,11.36
2024-03-04T20:13:27.034Z,11.36
2024-03-04T20:15:53.646Z,11.23
2024-03-04T20:18:20.548Z,11.04
2024-03-04T20:20:47.459Z,11.27
2024-03-04T20:23:14.139Z,11.38
2024-03-04T20:25:41.105Z,11.09
2024-03-04T20:28:10.169Z,10.92
2024-03-04T20:30:40.563Z,11.16
2024-03-04T20:33:11.317Z,11.00
2024-03-04T20:35:39.708Z,11.09
2024-03-04T20:38:07.763Z,11.02
2024-03-04T20:40:35.152Z,11.10
2024-03-04T20:43:02.751Z,11.23
2024-03-04T20:45:29.541Z,11.43
2024-03-04T20:47:56.464Z,11.10
2024-03-04T20:50:25.407Z,11.26
2024-03-04T20:52:52.983Z,11.04
2024-03-04T20:55:20.057Z,11.03
2024-03-04T20:57:47.239Z,11.14
2024-03-04T21:00:16.210Z,11.17
2024-03-04T21:02:47.611Z,11.17
2024-03-04T21:05:15.972Z,11.13
2024-03-04T21:07:43.572Z,11.22
2024-03-04T21:10:14.078Z,11.21
2024-03-04T21:12:43.752Z,10.96
2024-03-04T21:15:11.648Z,11.18
2024-03-04T21:17:41.776Z,11.05
2024-03-04T21:20:12.075Z,11.26
2024-03-04T21:22:39.159Z,11.11
2024-03-04T21:25:07.931Z,11.01
2024-03-04T21:27:36.692Z,11.15
2024-03-04T21:30:04.713Z,11.14
2024-03-04T21:32:31.206Z,11.22
2024-03-04T21:34:57.665Z,11.16
2024-03-04T21:37:28.015Z,11.18
2024-03-04T21:39:58.343Z,11.21
2024-03-04T21:42:24.852Z,11.26
2024-03-04T21:44:51.376Z,11.34
2024-03-04T21:47:17.915Z,11.30
2024-03-04T21:49:44.440Z,11.29
2024-03-04T21:52:10.927Z,11.28
2024-03-04T21:54:37.526Z,11.26
2024-03-04T21:57:04.217Z,11.18
2024-03-04T21:59:30.716Z,11.19
2024-03-04T22:01:57.330Z,11.08
2024-03-04T22:04:23.831Z,11.08
2024-03-04T22:06:51.466Z,11.36
2024-03-04T22:09:21.120Z,11.46
2024-03-04T22:11:49.265Z,11.36
2024-03-04T22:14:17.084Z,11.43
2024-03-04T22:16:44.561Z,11.20
2024-03-04T22:19:12.086Z,11.34
2024-03-04T22:21:39.665Z,11.41
2024-03-04T22:24:09.988Z,11.47
2024-03-04T22:26:37.101Z,11.44
2024-03-04T22:29:07.828Z,11.44
2024-03-04T22:31:35.027Z,11.40
2024-03-04T22:34:02.409Z,11.28
2024-03-04T22:36:28.951Z,11.38
2024-03-04T22:38:55.447Z,11.36
2024-03-04T22:41:22.754Z,11.46
2024-03-04T22:43:51.030Z,11.36
2024-03-04T22:46:18.667Z,11.35
2024-03-04T22:48:45.257Z,11.42
2024-03-04T22:51:11.716Z,11.48
2024-03-04T22:53:38.188Z,11.37
2024-03-04T22:56:05.503Z,11.49
2024-03-04T22:58:32.350Z,11.47
2024-03-04T23:01:04.828Z,11.60
2024-03-04T23:03:31.511Z,11.56
2024-03-04T23:05:58.556Z,11.59
2024-03-04T23:08:25.155Z,11.48
2024-03-04T23:10:51.759Z,11.21
2024-03-04T23:13:18.567Z,11.15
2024-03-04T23:15:45.097Z,11.16
2024-03-04T23:18:12.907Z,11.25
2024-03-04T23:20:39.551Z,10.95
2024-03-04T23:23:07.111Z,11.05
2024-03-04T23:25:34.135Z,10.99
2024-03-04T23:28:00.829Z,11.10
2024-03-04T23:30:27.761Z,11.00
2024-03-04T23:32:54.533Z,10.99
2024-03-04T23:35:21.178Z,11.27
2024-03-04T23:37:47.725Z,11.19
2024-03-04T23:40:15.432Z,11.00
2024-03-04T23:42:43.610Z,10.96
2024-03-04T23:45:13.438Z,11.12
2024-03-04T23:47:40.996Z,11.09
2024-03-04T23:50:08.810Z,11.09
2024-03-04T23:52:37.794Z,11.06
2024-03-04T23:55:08.266Z,11.08
2024-03-04T23:57:36.041Z,10.96
